To NAV CANADA Home Page Login to a new session Search on AWWS site Feedback and Comments Disclaimer Vers la page française équivalente Tips FAQ What's new on the site To the Forecasts and Observations / NOTAM section To "File a Flight Plan" website Publications and other links Update of the User's profile FIC Telephone Numbers My Weather Data Folder Route Weather Data Regional Weather Data Local Weather Data To the Forecasts and Observations / NOTAM section
Request Generated 02/13/2016 at 00:20:46 UTC . Weather information available at that time is displayed.

METAR/TAF

MONTREAL/MONTREAL INTL (MIRABEL)/QC    

METAR CYMX 130000Z 04005KT 360V080 2 1/4SM -SN OVC017 M13/M14 A2978
RMK NS8 SLP096=
SPECI CYMX 122340Z 03007KT 2SM -SN OVC011 M12/M14 A2979 RMK NS8
SLP099=
METAR CYMX 122300Z 03004KT 340V070 1SM -SN VV006 M12/M14 A2980 RMK
SN8 /S03/ SLP101=
SPECI CYMX 122233Z 05007KT 1SM -SN VV006 M12/M14 A2980 RMK SHGR8
SLP102=
METAR CYMX 122200Z 01005KT 1/2SM -SN VV004 M12/M14 A2981 RMK SN8
/S02/ SLP106=

TAF CYMX 122338Z 1300/1324 04005KT 4SM -SHSN OVC030 TEMPO 1300/1306
1/2SM SHSN VV005
BECMG 1303/1305 26010G20KT
FM130600 26010G20KT P6SM -SN BKN030 OVC060 TEMPO 1306/1309 2SM
-SHSN
FM130900 29010G20KT P6SM BKN030
FM132100 28010G20KT P6SM SCT050
RMK NXT FCST BY 130600Z=
Your time UTC time
Weather data provided by Environment Canada and NAV CANADA